Terminal Aerodrome Forecast
Issued by NWS Glasgow, MT

Home | Current Version | Previous Version | Text Only | Print | Product List | Glossary On
Versions: 1 2 3 4 5 6 7 8 9 10 11 12 13
000
FTUS45 KGGW 291700
TAFGGW
TAF
KGGW 291720Z 2918/3018 27009KT P6SM FEW070 FEW250
     FM292100 28013KT P6SM FEW060 FEW250
     FM300300 25007KT P6SM FEW120 SCT250=

USA.gov is the U.S. government's official web portal to all federal, state and local government web resources and services.